Terminal Aerodrome Forecast
Issued by NWS

Home | Current Version | Previous Version | Text Only | Print | Product List | Glossary On
Versions: 1 2 3 4 5 6 7 8 9 10 11 12 13 14 15 16 17 18 19 20
000
FTUS42 KGSP 241514 AAC
TAFGMU
TAF AMD
KGMU 241514Z 2415/2512 21010G20KT P6SM BKN012
     FM241700 22014G24KT P6SM SCT025
     FM242000 23013G22KT P6SM SCT250
     FM242300 23008KT P6SM SCT250
     FM250700 27006KT P6SM SCT250=

USA.gov is the U.S. government's official web portal to all federal, state and local government web resources and services.